»·PEaware :: SWA1292 KSAN-KSAT

SWA1292 :: KSAN-KSAT

FLIGHT INFORMATION

Flight Status: Arrived
Operator:
Southwest Airlines
More flights by this operator :: More flights under this callsign
Pilot: Daniel W. (24238)
Aircraft: BOEING 737-800
(B738)
More flights by this aircraft type
Origin: KSAN San Diego Intl-Lindbergh
United States
Destination: KSAT San Antonio Intl
United States
More flights between these airports :: More routes between these airports
Route: ZZOOO2 IPL J18 GBN J50 ELP J2 FST CSI2
File this flight plan on PilotEdge
Remarks: PBN / A1D1O1S2T1 NAV / RNVD1E1A1 RNP10 DAT / 1FANSP2PDC DOF / 200109 REG / N8672F EET / KZAB0024 KZHU0135 SEL / MPKS CODE / ABEB7C PER / C
Altitude:
(Current/Filed)
37,000ft
Speed:
(Current/Filed)
451kts
Departed: 09-Jan-20 08:46 AM
Arrived: 09-Jan-20 10:55 AM
Distance/Time
Traveled:
979nm/2:08
Distance/Time
To Go:
Arrived

Flight Plot

Page will automatically refresh every two minutes.

Flight plan parsing failed; only flown route is shown


Map Options




Map Legend


Flown Route
Filed Route
Departure Airport
Arrival Airport
Navaid (VOR, NDB)
Fix

Horizontal Profiles

Position Reports

Time Latitude Longitude Heading Altitude Ground
Speed
09-Jan-20 08:08 32.731869 -117.195854 249 23ft 0kts
09-Jan-20 08:09 32.731869 -117.195854 249 23ft 0kts
09-Jan-20 08:10 32.731869 -117.195854 249 23ft 0kts
09-Jan-20 08:11 32.731869 -117.195854 249 23ft 0kts
09-Jan-20 08:12 32.731869 -117.195854 249 23ft 0kts
09-Jan-20 08:13 32.731869 -117.195854 249 23ft 0kts
09-Jan-20 08:14 32.731869 -117.195854 249 23ft 0kts
09-Jan-20 08:15 32.731869 -117.195854 249 23ft 0kts
09-Jan-20 08:16 32.731869 -117.195854 249 23ft 0kts
09-Jan-20 08:17 32.731869 -117.195854 249 23ft 0kts
09-Jan-20 08:18 32.731869 -117.195854 249 23ft 0kts
09-Jan-20 08:19 32.731869 -117.195854 249 23ft 0kts
09-Jan-20 08:20 32.731869 -117.195854 249 23ft 0kts
09-Jan-20 08:21 32.731869 -117.195854 249 23ft 0kts
09-Jan-20 08:22 32.731869 -117.195854 249 23ft 0kts
09-Jan-20 08:23 32.731869 -117.195854 249 23ft 0kts
09-Jan-20 08:24 32.731869 -117.195854 249 23ft 0kts
09-Jan-20 08:25 32.731869 -117.195854 249 23ft 0kts
09-Jan-20 08:26 32.731869 -117.195854 249 23ft 0kts
09-Jan-20 08:27 32.731869 -117.195854 249 23ft 0kts
09-Jan-20 08:28 32.731869 -117.195854 249 23ft 0kts
09-Jan-20 08:29 32.731869 -117.195854 249 23ft 0kts
09-Jan-20 08:30 32.731869 -117.195854 249 23ft 0kts
09-Jan-20 08:31 32.731869 -117.195854 249 23ft 0kts
09-Jan-20 08:32 32.731869 -117.195854 249 23ft 0kts
09-Jan-20 08:33 32.731869 -117.195854 249 23ft 0kts
09-Jan-20 08:34 32.731869 -117.195854 249 23ft 0kts
09-Jan-20 08:35 32.731869 -117.195854 249 23ft 0kts
09-Jan-20 08:36 32.731940 -117.195441 279 23ft 2kts
09-Jan-20 08:37 32.731601 -117.195126 16 23ft 0kts
09-Jan-20 08:38 32.731601 -117.195126 16 23ft 0kts
09-Jan-20 08:40 32.731601 -117.195126 16 23ft 0kts
09-Jan-20 08:41 32.732860 -117.194472 29 23ft 0kts
09-Jan-20 08:42 32.733209 -117.192515 105 23ft 19kts
09-Jan-20 08:43 32.731517 -117.185513 106 23ft 22kts
09-Jan-20 08:44 32.729791 -117.178383 105 23ft 20kts
09-Jan-20 08:45 32.730311 -117.176272 285 23ft 17kts
09-Jan-20 08:46 32.739880 -117.215214 286 1231ft 168kts
09-Jan-20 08:47 32.754336 -117.277261 286 3553ft 220kts
09-Jan-20 08:48 32.713186 -117.317182 164 6913ft 247kts
09-Jan-20 08:49 32.651039 -117.262093 138 9402ft 314kts
09-Jan-20 08:50 32.622153 -117.157674 92 11652ft 377kts
09-Jan-20 08:51 32.612086 -117.028496 94 14600ft 404kts
09-Jan-20 08:52 32.606402 -116.893124 78 17430ft 418kts
09-Jan-20 08:53 32.632758 -116.756278 76 19810ft 438kts
09-Jan-20 08:54 32.646486 -116.609241 80 21939ft 460kts
09-Jan-20 08:55 32.660883 -116.455151 80 23853ft 478kts
09-Jan-20 08:56 32.676684 -116.295619 80 25594ft 495kts
09-Jan-20 08:57 32.692017 -116.131089 80 27137ft 510kts
09-Jan-20 08:58 32.708022 -115.961179 80 28538ft 525kts
09-Jan-20 08:59 32.724005 -115.787265 79 29805ft 537kts
09-Jan-20 08:59 32.737292 -115.639025 80 30788ft 546kts
09-Jan-20 09:01 32.752165 -115.428999 86 32541ft 547kts
09-Jan-20 09:02 32.755313 -115.249073 85 34013ft 544kts
09-Jan-20 09:02 32.758406 -115.099978 86 35205ft 540kts
09-Jan-20 09:04 32.762930 -114.892875 86 36766ft 535kts
09-Jan-20 09:05 32.766138 -114.715506 86 36993ft 534kts
09-Jan-20 09:05 32.768617 -114.568835 87 36993ft 533kts
09-Jan-20 09:07 32.771678 -114.363580 87 36970ft 533kts
09-Jan-20 09:07 32.773370 -114.216345 87 36969ft 533kts
09-Jan-20 09:08 32.775194 -114.040092 87 36974ft 534kts
09-Jan-20 09:10 32.795287 -113.836966 76 36979ft 532kts
09-Jan-20 09:10 32.815917 -113.692542 77 36983ft 531kts
09-Jan-20 09:11 32.840171 -113.519604 77 36986ft 532kts
09-Jan-20 09:13 32.868188 -113.317091 78 36991ft 531kts
09-Jan-20 09:13 32.888566 -113.172659 78 36990ft 532kts
09-Jan-20 09:14 32.912718 -112.999016 78 36996ft 532kts
09-Jan-20 09:15 32.936149 -112.825419 79 36996ft 532kts
09-Jan-20 09:16 32.953958 -112.650408 89 36998ft 533kts
09-Jan-20 09:17 32.938588 -112.474667 97 37000ft 532kts
09-Jan-20 09:18 32.922011 -112.299524 97 37004ft 532kts
09-Jan-20 09:19 32.906414 -112.124450 97 37014ft 532kts
09-Jan-20 09:20 32.889795 -111.949684 98 37015ft 531kts
09-Jan-20 09:21 32.857354 -111.779189 108 37019ft 528kts
09-Jan-20 09:22 32.819647 -111.611273 108 37020ft 526kts
09-Jan-20 09:23 32.781549 -111.442651 108 37021ft 527kts
09-Jan-20 09:24 32.743423 -111.275067 108 37023ft 526kts
09-Jan-20 09:25 32.705699 -111.107285 108 37025ft 526kts
09-Jan-20 09:26 32.667520 -110.939767 107 37024ft 524kts
09-Jan-20 09:27 32.629221 -110.773165 108 37026ft 523kts
09-Jan-20 09:28 32.590538 -110.607178 108 37028ft 522kts
09-Jan-20 09:29 32.551620 -110.441538 108 37028ft 521kts
09-Jan-20 09:30 32.512432 -110.276146 108 37032ft 520kts
09-Jan-20 09:31 32.473661 -110.111302 108 37035ft 520kts
09-Jan-20 09:32 32.434605 -109.946636 108 37040ft 519kts
09-Jan-20 09:33 32.395251 -109.782400 108 37046ft 519kts
09-Jan-20 09:34 32.355735 -109.618269 108 37047ft 519kts
09-Jan-20 09:35 32.316096 -109.454303 109 37053ft 518kts
09-Jan-20 09:36 32.275881 -109.290376 109 37054ft 517kts
09-Jan-20 09:37 32.237773 -109.126716 108 37057ft 518kts
09-Jan-20 09:38 32.199930 -108.962914 108 37059ft 517kts
09-Jan-20 09:39 32.162293 -108.799253 107 37062ft 517kts
09-Jan-20 09:40 32.124364 -108.635222 108 37063ft 516kts
09-Jan-20 09:41 32.086222 -108.472220 108 37065ft 515kts
09-Jan-20 09:42 32.047899 -108.309496 108 37065ft 515kts
09-Jan-20 09:43 32.009375 -108.146929 108 37067ft 515kts
09-Jan-20 09:44 31.970937 -107.984760 108 37069ft 514kts
09-Jan-20 09:45 31.931870 -107.822753 108 37071ft 515kts
09-Jan-20 09:46 31.912400 -107.655814 95 37074ft 517kts
09-Jan-20 09:47 31.901629 -107.487157 95 37071ft 516kts
09-Jan-20 09:48 31.890400 -107.318295 95 37071ft 515kts
09-Jan-20 09:49 31.879122 -107.150255 95 37072ft 515kts
09-Jan-20 09:50 31.867406 -106.982783 96 37067ft 515kts
09-Jan-20 09:51 31.855409 -106.814786 96 37064ft 515kts
09-Jan-20 09:52 31.843266 -106.647159 96 37061ft 514kts
09-Jan-20 09:53 31.831043 -106.479902 97 37059ft 514kts
09-Jan-20 09:54 31.818111 -106.312429 98 37059ft 514kts
09-Jan-20 09:55 31.783785 -106.150576 110 37071ft 509kts
09-Jan-20 09:56 31.743607 -105.991149 110 37077ft 510kts
09-Jan-20 09:57 31.703739 -105.830666 109 37077ft 510kts
09-Jan-20 09:58 31.664129 -105.670925 110 37072ft 509kts
09-Jan-20 09:59 31.623967 -105.512309 110 37067ft 509kts
09-Jan-20 10:00 31.583563 -105.353538 110 37054ft 507kts
09-Jan-20 10:01 31.542862 -105.195281 110 37051ft 507kts
09-Jan-20 10:02 31.501925 -105.037144 111 37049ft 505kts
09-Jan-20 10:03 31.461601 -104.879481 111 37043ft 505kts
09-Jan-20 10:04 31.420897 -104.722205 111 37039ft 504kts
09-Jan-20 10:05 31.379909 -104.565169 111 37039ft 504kts
09-Jan-20 10:06 31.338775 -104.408506 111 37058ft 503kts
09-Jan-20 10:07 31.297455 -104.252000 111 37062ft 503kts
09-Jan-20 10:08 31.256041 -104.095989 111 37061ft 503kts
09-Jan-20 10:09 31.214411 -103.939971 112 37066ft 501kts
09-Jan-20 10:10 31.172708 -103.784587 112 37062ft 501kts
09-Jan-20 10:11 31.130913 -103.629632 112 37052ft 500kts
09-Jan-20 10:12 31.088872 -103.474625 112 37046ft 501kts
09-Jan-20 10:13 31.046774 -103.319896 112 37047ft 501kts
09-Jan-20 10:14 31.004665 -103.165767 113 37047ft 499kts
09-Jan-20 10:15 30.962092 -103.011853 113 37041ft 498kts
09-Jan-20 10:16 30.921333 -102.857122 112 37039ft 498kts
09-Jan-20 10:17 30.881228 -102.702839 112 37042ft 498kts
09-Jan-20 10:18 30.841176 -102.548661 112 37046ft 498kts
09-Jan-20 10:19 30.801231 -102.394391 112 37047ft 497kts
09-Jan-20 10:20 30.760832 -102.240343 112 37039ft 497kts
09-Jan-20 10:21 30.720298 -102.086718 112 37047ft 496kts
09-Jan-20 10:22 30.679635 -101.933452 112 37054ft 495kts
09-Jan-20 10:23 30.639014 -101.781213 112 37060ft 495kts
09-Jan-20 10:24 30.598012 -101.628321 112 37068ft 495kts
09-Jan-20 10:25 30.556888 -101.475767 112 37068ft 495kts
09-Jan-20 10:26 30.515615 -101.323433 113 37072ft 495kts
09-Jan-20 10:27 30.474205 -101.171389 113 37075ft 494kts
09-Jan-20 10:28 30.432603 -101.019423 113 37087ft 494kts
09-Jan-20 10:29 30.390837 -100.867623 113 37093ft 494kts
09-Jan-20 10:30 30.349178 -100.716941 113 37091ft 476kts
09-Jan-20 10:31 30.308968 -100.572248 113 34200ft 489kts
09-Jan-20 10:32 30.266456 -100.420010 114 31050ft 494kts
09-Jan-20 10:33 30.224925 -100.272022 114 28880ft 476kts
09-Jan-20 10:34 30.184661 -100.129169 114 26300ft 460kts
09-Jan-20 10:35 30.145559 -99.991149 114 24138ft 446kts
09-Jan-20 10:36 30.107520 -99.857449 113 22030ft 432kts
09-Jan-20 10:37 30.070127 -99.726547 113 19927ft 425kts
09-Jan-20 10:38 30.033604 -99.599247 112 17861ft 410kts
09-Jan-20 10:39 29.998482 -99.476294 113 15798ft 399kts
09-Jan-20 10:40 29.963766 -99.356703 113 13809ft 386kts
09-Jan-20 10:41 29.930112 -99.241169 113 11853ft 374kts
09-Jan-20 10:42 29.892409 -99.132980 118 10470ft 345kts
09-Jan-20 10:43 29.856801 -99.038609 118 10153ft 299kts
09-Jan-20 10:44 29.824967 -98.951500 116 8917ft 292kts
09-Jan-20 10:45 29.794747 -98.867101 118 7358ft 278kts
09-Jan-20 10:46 29.763583 -98.788266 125 5827ft 260kts
09-Jan-20 10:47 29.725603 -98.720797 138 4594ft 241kts
09-Jan-20 10:48 29.684049 -98.667751 138 3904ft 203kts
09-Jan-20 10:49 29.650205 -98.624086 139 3150ft 163kts
09-Jan-20 10:50 29.619894 -98.584970 138 2996ft 168kts
09-Jan-20 10:51 29.590732 -98.547548 136 2275ft 143kts
09-Jan-20 10:52 29.564583 -98.513538 134 1490ft 138kts
09-Jan-20 10:53 29.539436 -98.481249 130 821ft 128kts
09-Jan-20 10:54 29.531360 -98.472579 162 817ft 12kts
09-Jan-20 10:55 29.529066 -98.469825 132 817ft 13kts
09-Jan-20 10:56 29.526990 -98.468706 237 817ft 8kts
09-Jan-20 10:57 29.527009 -98.469851 311 817ft 0kts
09-Jan-20 10:58 29.527009 -98.469851 311 817ft 0kts
09-Jan-20 10:59 29.527009 -98.469851 311 817ft 0kts
09-Jan-20 11:00 29.527009 -98.469851 311 817ft 0kts
09-Jan-20 11:01 29.527009 -98.469851 311 817ft 0kts
09-Jan-20 11:02 29.527009 -98.469851 311 817ft 0kts
09-Jan-20 11:03 29.527009 -98.469851 311 817ft 0kts
09-Jan-20 11:04 29.527009 -98.469851 311 817ft 0kts
09-Jan-20 11:05 29.527009 -98.469851 311 817ft 0kts
09-Jan-20 11:06 29.527009 -98.469851 311 817ft 0kts
09-Jan-20 11:07 29.527009 -98.469851 311 817ft 0kts
09-Jan-20 11:09 29.527009 -98.469851 311 817ft 0kts

Navigation Log

Ident Type
Flight plan parsing failed, navigation log unavailable